Time;durP1;ratioP1;P1;durP2;ratioP2;P2;SDS_P1;SDS_P2;PMS_P1;PMS_P2;Temp;Humidity;BMP_temperature;BMP_pressure;BME280_temperature;BME280_humidity;BME280_pressure;Samples;Min_cycle;Max_cycle;Signal;HPM_P1;HPM_P2
2022/05/13 00:00:57;;;;;;;8.20;3.65;;;11.80;99.90;;;;;;4966658;28;20050;-78
2022/05/13 00:03:23;;;;;;;10.75;4.88;;;11.90;99.90;;;;;;4965121;28;20473;-79
2022/05/13 00:05:52;;;;;;;9.48;3.40;;;11.90;99.90;;;;;;4966775;28;20046;-79
2022/05/13 00:08:18;;;;;;;7.80;3.03;;;11.90;99.90;;;;;;4965410;28;20054;-78
2022/05/13 00:10:44;;;;;;;13.90;4.40;;;11.90;99.90;;;;;;4981790;28;20426;-78
2022/05/13 00:13:10;;;;;;;15.05;5.28;;;11.90;99.90;;;;;;4966123;28;20042;-78
2022/05/13 00:15:36;;;;;;;15.82;4.30;;;11.90;99.90;;;;;;4953144;28;20652;-79
2022/05/13 00:18:02;;;;;;;14.68;3.75;;;11.90;99.90;;;;;;4968697;28;20375;-79
2022/05/13 00:20:28;;;;;;;12.07;4.88;;;11.90;99.90;;;;;;4970317;28;20482;-78
2022/05/13 00:22:56;;;;;;;14.80;4.00;;;11.90;99.90;;;;;;4968507;28;20129;-78
2022/05/13 00:25:25;;;;;;;10.57;4.43;;;12.00;99.90;;;;;;4968544;28;20058;-78
2022/05/13 00:27:54;;;;;;;15.10;4.47;;;12.00;99.90;;;;;;4968039;28;20098;-78
2022/05/13 00:30:20;;;;;;;8.48;3.67;;;12.00;99.90;;;;;;4968535;28;20065;-78
2022/05/13 00:32:47;;;;;;;10.60;4.68;;;12.00;99.90;;;;;;4970209;28;20051;-80
2022/05/13 00:35:12;;;;;;;13.70;5.38;;;12.00;99.90;;;;;;4970188;28;20046;-79
2022/05/13 00:37:38;;;;;;;16.83;6.22;;;12.10;99.90;;;;;;4970093;28;20114;-78
2022/05/13 00:40:05;;;;;;;9.52;3.63;;;12.10;99.90;;;;;;4969724;28;20047;-78
2022/05/13 00:42:30;;;;;;;19.92;5.00;;;12.10;99.90;;;;;;4968615;28;20502;-77
2022/05/13 00:44:58;;;;;;;9.52;4.15;;;12.20;99.90;;;;;;4968164;28;20055;-80
2022/05/13 00:47:24;;;;;;;9.82;4.05;;;12.20;99.90;;;;;;4968273;28;20054;-80
2022/05/13 00:49:51;;;;;;;12.90;3.80;;;12.20;99.90;;;;;;4968176;28;20063;-79
2022/05/13 00:52:17;;;;;;;14.23;4.20;;;12.20;99.90;;;;;;4984568;28;20130;-75
2022/05/13 00:54:42;;;;;;;7.68;3.00;;;12.20;99.90;;;;;;4968484;28;20134;-78
2022/05/13 00:57:13;;;;;;;8.98;4.00;;;12.20;99.90;;;;;;4968511;28;20047;-77
2022/05/13 00:59:40;;;;;;;;;;;12.30;99.90;;;;;;4969846;28;20406;-76
2022/05/13 01:02:06;;;;;;;12.27;4.10;;;12.20;99.90;;;;;;4968067;28;20428;-78
2022/05/13 01:04:34;;;;;;;18.20;4.95;;;12.30;99.90;;;;;;4968406;28;20445;-78
2022/05/13 01:07:09;;;;;;;14.75;3.97;;;12.30;99.90;;;;;;4969361;28;20489;-77
2022/05/13 01:09:41;;;;;;;11.18;4.10;;;12.30;99.90;;;;;;4968146;28;20057;-77
2022/05/13 01:12:11;;;;;;;19.13;5.10;;;12.30;99.90;;;;;;4966859;28;20512;-78
2022/05/13 01:14:51;;;;;;;15.80;4.55;;;12.40;99.90;;;;;;4969422;28;20054;-78
2022/05/13 01:20:19;;;;;;;16.60;4.07;;;12.40;99.90;;;;;;4969439;28;20054;-79
2022/05/13 01:22:53;;;;;;;13.70;3.97;;;12.40;99.90;;;;;;4969362;28;20047;-78
2022/05/13 01:25:26;;;;;;;17.85;3.92;;;12.40;99.90;;;;;;4966967;28;20533;-77
2022/05/13 01:27:54;;;;;;;18.48;4.45;;;12.40;99.90;;;;;;4966678;28;20089;-77
2022/05/13 01:30:26;;;;;;;17.42;4.50;;;12.40;99.90;;;;;;4967396;28;20089;-78
2022/05/13 01:32:52;;;;;;;16.40;4.25;;;12.40;99.90;;;;;;4967726;28;20051;-80
2022/05/13 01:35:19;;;;;;;16.10;4.80;;;12.40;99.90;;;;;;4967389;28;20059;-77
2022/05/13 01:37:44;;;;;;;13.65;3.63;;;12.40;99.90;;;;;;4968059;28;20083;-78
2022/05/13 01:40:11;;;;;;;15.73;5.20;;;12.40;99.90;;;;;;4983674;28;20046;-77
2022/05/13 01:42:37;;;;;;;22.15;5.72;;;12.40;99.90;;;;;;4968573;28;20047;-78
2022/05/13 01:45:05;;;;;;;15.18;4.03;;;12.40;99.90;;;;;;4966995;28;20089;-77
2022/05/13 01:47:30;;;;;;;16.90;4.97;;;12.40;99.90;;;;;;4967155;28;20042;-78
2022/05/13 01:49:57;;;;;;;16.10;4.47;;;12.40;99.90;;;;;;4983376;28;20062;-78
2022/05/13 01:52:23;;;;;;;16.10;5.22;;;12.40;99.90;;;;;;4983378;28;20108;-77
2022/05/13 01:54:48;;;;;;;25.73;6.55;;;12.30;99.90;;;;;;5011782;23;20054;-79
2022/05/13 01:57:14;;;;;;;19.45;5.68;;;12.30;99.90;;;;;;5007053;28;20042;-78
2022/05/13 01:59:40;;;;;;;19.55;6.03;;;12.40;99.90;;;;;;5007123;28;20046;-77
2022/05/13 02:02:06;;;;;;;17.92;6.95;;;12.40;99.90;;;;;;5006160;28;20250;-76
2022/05/13 02:04:31;;;;;;;20.75;5.20;;;12.40;99.90;;;;;;5005794;28;20054;-78
2022/05/13 02:06:57;;;;;;;17.25;5.90;;;12.40;99.90;;;;;;4989950;28;20124;-79
2022/05/13 02:09:23;;;;;;;23.20;6.25;;;12.40;99.90;;;;;;5005654;28;20046;-78
2022/05/13 02:11:49;;;;;;;21.30;6.45;;;12.40;99.90;;;;;;5007253;28;20037;-78
2022/05/13 02:14:17;;;;;;;13.80;4.53;;;12.40;99.90;;;;;;5006617;28;20042;-80
2022/05/13 02:16:42;;;;;;;24.25;5.55;;;12.40;99.90;;;;;;5006218;28;20045;-78
2022/05/13 02:19:08;;;;;;;27.40;7.88;;;12.40;99.90;;;;;;5006959;28;20108;-78
2022/05/13 02:21:34;;;;;;;20.60;5.13;;;12.40;99.90;;;;;;5007295;28;20493;-78
2022/05/13 02:24:00;;;;;;;21.45;5.80;;;12.40;99.90;;;;;;5006962;28;20105;-78
2022/05/13 02:26:25;;;;;;;21.25;5.53;;;12.40;99.90;;;;;;4988983;28;20587;-79
2022/05/13 02:28:51;;;;;;;24.52;6.30;;;12.40;99.90;;;;;;5004534;28;20037;-77
2022/05/13 02:31:17;;;;;;;31.50;6.47;;;12.40;99.90;;;;;;5006576;28;20120;-77
2022/05/13 02:33:43;;;;;;;16.27;5.20;;;12.40;99.90;;;;;;5007141;28;20052;-78
2022/05/13 02:36:11;;;;;;;20.40;4.65;;;12.40;99.90;;;;;;4988540;28;20046;-78
2022/05/13 02:38:37;;;;;;;17.52;4.97;;;12.40;99.90;;;;;;5006729;28;20684;-79
2022/05/13 02:41:13;;;;;;;21.52;6.85;;;12.40;99.90;;;;;;5005311;28;20046;-78
2022/05/13 02:43:41;;;;;;;22.60;5.32;;;12.40;99.90;;;;;;5003963;28;20042;-76
2022/05/13 02:46:07;;;;;;;25.85;5.68;;;12.30;99.90;;;;;;5005055;28;20444;-77
2022/05/13 02:48:32;;;;;;;17.30;5.45;;;12.30;99.90;;;;;;5006543;28;20046;-78
2022/05/13 02:50:58;;;;;;;28.10;5.97;;;12.30;99.90;;;;;;5007110;28;20412;-79
2022/05/13 02:53:24;;;;;;;20.42;4.85;;;12.30;99.90;;;;;;5005999;28;20061;-78
2022/05/13 02:55:50;;;;;;;33.08;6.93;;;12.30;99.90;;;;;;5006283;28;20050;-78
2022/05/13 02:58:16;;;;;;;21.58;5.28;;;12.30;99.90;;;;;;5004643;28;20042;-78
2022/05/13 03:00:44;;;;;;;19.65;5.50;;;12.30;99.90;;;;;;4989024;28;20046;-78
2022/05/13 03:03:10;;;;;;;25.65;5.82;;;12.40;99.90;;;;;;5006291;28;20034;-76
2022/05/13 03:05:37;;;;;;;18.30;5.47;;;12.40;99.90;;;;;;5006608;28;20361;-77
2022/05/13 03:08:03;;;;;;;22.38;6.85;;;12.30;99.90;;;;;;4988138;28;20049;-75
2022/05/13 03:10:29;;;;;;;23.67;6.90;;;12.30;99.90;;;;;;5005271;28;20052;-77
2022/05/13 03:12:56;;;;;;;25.90;6.15;;;12.30;99.90;;;;;;5004085;28;20080;-78
2022/05/13 03:15:22;;;;;;;27.80;6.47;;;12.30;99.90;;;;;;5005859;28;20048;-78
2022/05/13 03:17:47;;;;;;;17.50;3.83;;;12.30;99.90;;;;;;5006146;28;20408;-80
2022/05/13 03:20:17;;;;;;;14.23;4.30;;;12.30;99.90;;;;;;5006635;28;20046;-78
2022/05/13 03:22:44;;;;;;;21.70;4.63;;;12.30;99.90;;;;;;5005237;28;20066;-79
2022/05/13 03:25:10;;;;;;;21.27;4.93;;;12.30;99.90;;;;;;5006376;28;20046;-79
2022/05/13 03:27:36;;;;;;;13.13;3.33;;;12.40;99.90;;;;;;5004803;28;20049;-78
2022/05/13 03:30:01;;;;;;;24.48;5.07;;;12.40;99.90;;;;;;5006763;28;20042;-79
2022/05/13 03:32:27;;;;;;;15.95;3.65;;;12.40;99.90;;;;;;5005881;28;20083;-77
2022/05/13 03:34:53;;;;;;;16.67;4.80;;;12.40;99.90;;;;;;4988292;28;20053;-77
2022/05/13 03:37:18;;;;;;;24.58;5.45;;;12.40;99.90;;;;;;5005814;28;20447;-78
2022/05/13 03:39:44;;;;;;;21.50;5.70;;;12.40;99.90;;;;;;5004982;28;20050;-77
2022/05/13 03:42:09;;;;;;;23.27;4.93;;;12.40;99.90;;;;;;5003533;28;20049;-76
2022/05/13 03:44:36;;;;;;;26.05;5.88;;;12.40;99.90;;;;;;4988438;28;20078;-77
2022/05/13 03:47:03;;;;;;;12.05;4.00;;;12.50;99.90;;;;;;5004632;28;20042;-76
2022/05/13 03:49:29;;;;;;;24.25;5.80;;;12.50;99.90;;;;;;5007731;28;20049;-78
2022/05/13 03:51:55;;;;;;;16.80;4.32;;;12.50;99.90;;;;;;5009927;28;20044;-78
2022/05/13 03:54:20;;;;;;;19.20;4.10;;;12.40;99.90;;;;;;5007839;28;20228;-77
2022/05/13 03:56:46;;;;;;;24.65;7.28;;;12.40;99.90;;;;;;5008960;28;20094;-78
2022/05/13 03:59:11;;;;;;;18.88;7.22;;;12.40;99.90;;;;;;5008598;28;20046;-78
2022/05/13 04:01:37;;;;;;;18.40;5.07;;;12.50;99.90;;;;;;5008501;28;20042;-77
2022/05/13 04:04:03;;;;;;;24.27;6.43;;;12.50;99.90;;;;;;5008017;28;20046;-76
2022/05/13 04:09:13;;;;;;;17.20;4.50;;;12.50;99.90;;;;;;5008688;28;20046;-78
2022/05/13 04:11:40;;;;;;;21.75;6.10;;;12.50;99.90;;;;;;5008736;28;20052;-78
2022/05/13 04:16:53;;;;;;;20.73;5.30;;;12.50;99.90;;;;;;5009217;28;20046;-78
2022/05/13 04:19:19;;;;;;;31.48;6.32;;;12.50;99.90;;;;;;5007771;28;20041;-78
2022/05/13 04:21:46;;;;;;;16.67;4.38;;;12.50;99.90;;;;;;5008127;28;20060;-77
2022/05/13 04:24:16;;;;;;;15.88;3.47;;;12.50;99.90;;;;;;5007671;28;20038;-79
2022/05/13 04:26:42;;;;;;;;;;;12.50;99.90;;;;;;5008938;28;20049;-77
2022/05/13 04:29:08;;;;;;;11.20;2.45;;;12.50;99.90;;;;;;5008900;28;19920;-76
2022/05/13 04:31:37;;;;;;;16.02;4.60;;;12.50;99.90;;;;;;5007898;28;20057;-78
2022/05/13 04:34:03;;;;;;;9.60;2.63;;;12.50;99.90;;;;;;4990869;28;20081;-76
2022/05/13 04:36:29;;;;;;;11.60;2.67;;;12.50;99.90;;;;;;4991263;28;20156;-79
2022/05/13 04:38:56;;;;;;;17.13;3.55;;;12.50;99.90;;;;;;5008948;28;20061;-79
2022/05/13 04:44:08;;;;;;;10.43;2.55;;;12.50;99.90;;;;;;5007172;28;20056;-76
2022/05/13 04:46:34;;;;;;;7.75;2.03;;;12.60;99.90;;;;;;5007710;28;20176;-77
2022/05/13 04:49:00;;;;;;;8.55;3.25;;;12.50;99.90;;;;;;5007273;28;20069;-78
2022/05/13 04:51:26;;;;;;;7.93;3.42;;;12.60;99.90;;;;;;4990692;28;20085;-77
2022/05/13 04:53:53;;;;;;;8.02;2.45;;;12.60;99.90;;;;;;4990588;28;20061;-78
2022/05/13 04:56:21;;;;;;;9.35;3.60;;;12.50;99.90;;;;;;5007163;28;20124;-75
2022/05/13 04:58:47;;;;;;;5.68;2.28;;;12.60;99.90;;;;;;5006551;28;20392;-75
2022/05/13 05:01:14;;;;;;;9.80;2.38;;;12.60;99.90;;;;;;5007682;28;20057;-77
2022/05/13 05:03:40;;;;;;;12.60;3.38;;;12.70;99.90;;;;;;4990294;28;20571;-77
2022/05/13 05:06:07;;;;;;;6.60;1.67;;;12.70;99.90;;;;;;5008202;28;20217;-76
2022/05/13 05:08:33;;;;;;;13.57;2.33;;;12.60;99.90;;;;;;5008475;28;20049;-77
2022/05/13 05:10:59;;;;;;;7.90;2.58;;;12.70;99.90;;;;;;5006692;28;20049;-77
2022/05/13 05:13:33;;;;;;;10.93;2.30;;;12.70;99.90;;;;;;5005529;28;20038;-77
2022/05/13 05:15:59;;;;;;;15.15;3.58;;;12.70;99.90;;;;;;5008372;28;20124;-76
2022/05/13 05:18:25;;;;;;;8.00;2.00;;;12.80;99.90;;;;;;5008166;28;20045;-78
2022/05/13 05:20:52;;;;;;;9.05;1.83;;;12.80;99.90;;;;;;4990402;28;20046;-78
2022/05/13 05:23:23;;;;;;;9.38;2.13;;;12.90;99.90;;;;;;5007792;28;20049;-76
2022/05/13 05:25:49;;;;;;;9.80;2.42;;;12.90;99.90;;;;;;5006624;28;20054;-76
2022/05/13 05:28:15;;;;;;;6.82;1.95;;;12.80;99.90;;;;;;5006037;28;20049;-77
2022/05/13 05:30:42;;;;;;;9.88;2.05;;;12.90;99.90;;;;;;5006744;28;20057;-77
2022/05/13 05:33:09;;;;;;;9.23;2.58;;;12.90;99.90;;;;;;5022811;28;20045;-76
2022/05/13 05:35:35;;;;;;;7.45;1.50;;;12.90;99.90;;;;;;5007746;28;20136;-77
2022/05/13 05:38:01;;;;;;;10.18;2.30;;;12.90;99.90;;;;;;5006396;28;20125;-75
2022/05/13 05:40:26;;;;;;;7.32;1.75;;;13.00;99.90;;;;;;5007491;28;20038;-78
2022/05/13 05:42:52;;;;;;;8.93;2.42;;;12.90;99.90;;;;;;4988970;28;20046;-78
2022/05/13 05:45:20;;;;;;;9.68;2.22;;;12.90;99.90;;;;;;5007383;28;20069;-76
2022/05/13 05:47:47;;;;;;;9.02;2.47;;;13.00;99.90;;;;;;5008103;28;20441;-75
2022/05/13 05:50:16;;;;;;;10.15;2.08;;;13.00;99.90;;;;;;5007728;28;20447;-77
2022/05/13 05:52:42;;;;;;;10.57;2.55;;;13.00;99.90;;;;;;5006305;28;20496;-76
2022/05/13 05:58:02;;;;;;;9.45;1.98;;;13.10;99.90;;;;;;5005047;28;20046;-76
2022/05/13 06:00:29;;;;;;;9.38;3.42;;;13.10;99.90;;;;;;5005423;28;20212;-76
2022/05/13 06:02:55;;;;;;;7.82;1.40;;;13.10;99.90;;;;;;5007038;28;20049;-77
2022/05/13 06:05:21;;;;;;;5.78;2.13;;;13.20;99.90;;;;;;5005505;28;20088;-76
2022/05/13 06:07:49;;;;;;;10.15;3.80;;;13.20;99.90;;;;;;5006991;28;20125;-76
2022/05/13 06:10:15;;;;;;;10.80;2.40;;;13.20;99.90;;;;;;5007566;28;20046;-76
2022/05/13 06:12:41;;;;;;;7.57;2.67;;;13.30;99.90;;;;;;5005734;28;20049;-76
2022/05/13 06:15:08;;;;;;;12.20;2.00;;;13.30;99.90;;;;;;5005570;28;20496;-76
2022/05/13 06:17:33;;;;;;;11.68;3.22;;;13.30;99.90;;;;;;5005823;28;20046;-76
2022/05/13 06:20:07;;;;;;;12.35;2.97;;;13.30;99.90;;;;;;5006586;28;20134;-75
2022/05/13 06:22:33;;;;;;;7.78;1.30;;;13.30;99.90;;;;;;5005347;28;20060;-77
2022/05/13 06:24:59;;;;;;;12.52;1.58;;;13.30;99.90;;;;;;5005783;28;20404;-77
2022/05/13 06:27:24;;;;;;;8.63;1.95;;;13.40;99.90;;;;;;5004646;28;20050;-76
2022/05/13 06:29:52;;;;;;;10.90;1.70;;;13.40;99.90;;;;;;5005528;28;20137;-77
2022/05/13 06:32:18;;;;;;;3.92;1.17;;;13.40;99.90;;;;;;5005383;28;20062;-78
2022/05/13 06:34:43;;;;;;;8.60;2.28;;;13.40;99.90;;;;;;5005730;28;20053;-77
2022/05/13 06:37:09;;;;;;;14.45;3.42;;;13.50;99.90;;;;;;4988616;28;20133;-78
2022/05/13 06:39:34;;;;;;;7.38;1.92;;;13.50;99.90;;;;;;5006365;28;20042;-78
2022/05/13 06:42:00;;;;;;;9.85;2.60;;;13.50;99.90;;;;;;5005431;28;20038;-77
2022/05/13 06:44:26;;;;;;;7.75;1.35;;;13.50;99.90;;;;;;5005022;28;20094;-78
2022/05/13 06:46:51;;;;;;;9.20;1.90;;;13.60;99.90;;;;;;5006271;28;20077;-77
2022/05/13 06:49:17;;;;;;;8.10;2.38;;;13.50;99.90;;;;;;5005020;28;20186;-77
2022/05/13 06:51:42;;;;;;;7.70;2.28;;;13.70;99.90;;;;;;5005292;28;20416;-77
2022/05/13 06:54:10;;;;;;;7.95;2.38;;;13.60;99.90;;;;;;5021045;28;20421;-77
2022/05/13 06:56:40;;;;;;;4.05;1.48;;;13.50;99.90;;;;;;5004553;28;20041;-78
2022/05/13 06:59:07;;;;;;;7.10;2.90;;;13.60;99.90;;;;;;5006329;28;20128;-77
2022/05/13 07:01:33;;;;;;;18.27;3.35;;;13.60;99.90;;;;;;5005196;28;20493;-78
2022/05/13 07:03:58;;;;;;;5.35;1.17;;;13.70;99.90;;;;;;5005820;28;20050;-78
2022/05/13 07:06:24;;;;;;;6.13;1.75;;;13.90;99.90;;;;;;5006195;28;20050;-78
2022/05/13 07:08:50;;;;;;;5.18;1.58;;;14.00;99.90;;;;;;5006245;28;20129;-79
2022/05/13 07:11:17;;;;;;;14.45;2.97;;;14.10;99.90;;;;;;5005501;28;20064;-79
2022/05/13 07:13:43;;;;;;;7.63;1.77;;;14.50;99.90;;;;;;5006226;28;20049;-77
2022/05/13 07:16:08;;;;;;;10.93;1.75;;;14.90;99.90;;;;;;5005716;28;20041;-76
2022/05/13 07:18:36;;;;;;;9.02;1.25;;;15.10;99.90;;;;;;5006052;28;20048;-77
2022/05/13 07:21:02;;;;;;;6.70;1.70;;;16.00;99.90;;;;;;5004785;28;20050;-76
2022/05/13 07:23:29;;;;;;;7.88;1.73;;;15.30;99.90;;;;;;5005238;28;20100;-77
2022/05/13 07:25:55;;;;;;;6.25;1.55;;;15.60;99.90;;;;;;5004921;28;20452;-76
2022/05/13 07:28:21;;;;;;;8.32;1.88;;;15.20;99.90;;;;;;5004901;28;20046;-76
2022/05/13 07:30:47;;;;;;;11.45;2.88;;;16.30;99.90;;;;;;5005790;28;20046;-75
2022/05/13 07:33:13;;;;;;;8.40;1.90;;;15.20;99.90;;;;;;5005255;28;20461;-76
2022/05/13 07:35:39;;;;;;;7.05;1.90;;;15.50;99.90;;;;;;5005603;28;20086;-76
2022/05/13 07:38:09;;;;;;;13.88;2.35;;;15.30;99.90;;;;;;5006020;28;20084;-76
2022/05/13 07:43:19;;;;;;;7.63;1.60;;;15.50;99.90;;;;;;5003709;28;20057;-75
2022/05/13 07:45:45;;;;;;;10.73;2.00;;;14.90;99.90;;;;;;4988485;28;20030;-76
2022/05/13 07:48:11;;;;;;;7.20;1.85;;;15.10;99.90;;;;;;5005659;28;20046;-76
2022/05/13 07:50:36;;;;;;;6.70;2.03;;;14.90;99.90;;;;;;5006246;28;20054;-77
2022/05/13 07:53:03;;;;;;;8.70;1.45;;;15.10;99.90;;;;;;5005617;28;20421;-75
2022/05/13 07:55:28;;;;;;;10.45;2.53;;;15.00;99.90;;;;;;5005690;28;20133;-76
2022/05/13 07:57:54;;;;;;;6.47;1.30;;;14.60;99.90;;;;;;5003556;28;20120;-77
2022/05/13 08:00:25;;;;;;;10.73;1.65;;;14.60;99.90;;;;;;5005032;28;20054;-76
2022/05/13 08:02:56;;;;;;;4.45;1.23;;;14.80;99.90;;;;;;5005850;28;20045;-78
2022/05/13 08:05:22;;;;;;;6.05;1.70;;;14.70;99.90;;;;;;5005673;28;20048;-76
2022/05/13 08:07:57;;;;;;;7.32;1.73;;;15.20;99.90;;;;;;5005752;28;20046;-76
2022/05/13 08:10:22;;;;;;;12.90;2.58;;;15.70;99.90;;;;;;5005830;28;20285;-76
2022/05/13 08:12:48;;;;;;;7.07;2.03;;;15.30;99.90;;;;;;5019698;28;20104;-76
2022/05/13 08:15:13;;;;;;;5.50;2.72;;;15.20;99.90;;;;;;5005044;28;20406;-76
2022/05/13 08:17:39;;;;;;;14.20;2.85;;;14.70;99.90;;;;;;5005692;28;20531;-76
2022/05/13 08:20:05;;;;;;;8.32;1.98;;;14.50;99.90;;;;;;5005709;28;20450;-76
2022/05/13 08:22:31;;;;;;;6.75;1.23;;;14.60;99.90;;;;;;5020352;28;20050;-76
2022/05/13 08:24:57;;;;;;;5.00;1.50;;;15.50;99.90;;;;;;5005538;28;20404;-77
2022/05/13 08:27:22;;;;;;;7.95;1.20;;;15.60;99.90;;;;;;5003448;28;20054;-76
2022/05/13 08:29:48;;;;;;;4.85;1.70;;;15.80;99.90;;;;;;5005513;28;20053;-76
2022/05/13 08:32:13;;;;;;;7.80;1.58;;;15.30;99.90;;;;;;5005684;28;20092;-77
2022/05/13 08:34:39;;;;;;;4.20;1.35;;;15.00;99.90;;;;;;5006471;28;20413;-76
2022/05/13 08:37:04;;;;;;;6.38;2.08;;;15.20;99.90;;;;;;5009026;28;20041;-76
2022/05/13 08:39:30;;;;;;;8.75;2.20;;;15.70;99.90;;;;;;5007776;28;20481;-77
2022/05/13 08:42:28;;;;;;;7.47;1.83;;;15.50;99.90;;;;;;5008136;28;20046;-77
2022/05/13 08:44:54;;;;;;;6.00;1.30;;;15.50;99.90;;;;;;5002066;28;20576;-77
2022/05/13 08:47:23;;;;;;;7.70;1.40;;;16.00;99.90;;;;;;5007240;28;20038;-77
2022/05/13 08:50:12;;;;;;;6.47;1.48;;;16.00;99.90;;;;;;5008538;28;20038;-77
2022/05/13 08:55:34;;;;;;;6.18;1.50;;;15.80;99.90;;;;;;5008455;28;20054;-76
2022/05/13 08:58:04;;;;;;;10.18;2.58;;;15.20;99.90;;;;;;5007273;28;20044;-77
2022/05/13 09:00:52;;;;;;;4.05;1.02;;;15.20;99.90;;;;;;5008540;28;20045;-76
2022/05/13 09:03:41;;;;;;;7.00;1.90;;;15.10;99.90;;;;;;5007912;28;20121;-74
2022/05/13 09:06:22;;;;;;;10.35;1.98;;;15.20;99.90;;;;;;5007310;28;20057;-77
2022/05/13 09:08:48;;;;;;;11.63;2.25;;;15.00;99.90;;;;;;5008260;28;20046;-77
2022/05/13 09:11:16;;;;;;;4.35;1.75;;;15.00;99.90;;;;;;5006184;28;20482;-77
2022/05/13 09:14:14;;;;;;;7.72;1.70;;;15.10;99.90;;;;;;5007377;28;20045;-77
2022/05/13 09:16:50;;;;;;;6.15;1.92;;;15.00;99.90;;;;;;5002865;28;20058;-77
2022/05/13 09:19:55;;;;;;;8.05;1.73;;;14.90;99.90;;;;;;5008355;28;20038;-76
2022/05/13 09:22:20;;;;;;;7.80;1.90;;;15.10;99.90;;;;;;5002911;28;20080;-77
2022/05/13 09:24:46;;;;;;;5.38;1.13;;;15.00;99.90;;;;;;5008888;28;20412;-76
2022/05/13 09:27:13;;;;;;;9.10;1.63;;;14.90;99.90;;;;;;5007550;28;20386;-76
2022/05/13 09:29:41;;;;;;;5.70;1.58;;;14.80;99.90;;;;;;5008068;28;20042;-76
2022/05/13 09:32:14;;;;;;;8.38;1.67;;;15.00;99.90;;;;;;5007068;28;20042;-75
2022/05/13 09:35:12;;;;;;;7.15;1.95;;;15.50;99.90;;;;;;5007839;28;20577;-76
2022/05/13 09:37:41;;;;;;;6.63;2.00;;;15.70;99.90;;;;;;5008328;28;20058;-76
2022/05/13 09:40:21;;;;;;;4.65;1.55;;;15.60;99.90;;;;;;5007791;28;20046;-76
2022/05/13 09:42:49;;;;;;;7.47;2.38;;;15.40;99.90;;;;;;5006554;28;20049;-76
2022/05/13 09:45:21;;;;;;;9.07;1.98;;;15.10;99.90;;;;;;5006597;28;20046;-76
2022/05/13 09:47:58;;;;;;;7.20;3.10;;;15.40;99.90;;;;;;4989789;28;20050;-76
2022/05/13 09:50:28;;;;;;;8.48;1.88;;;15.80;99.90;;;;;;5006206;28;20049;-76
2022/05/13 09:53:02;;;;;;;;;;;16.00;99.90;;;;;;5008002;28;20056;-76
2022/05/13 09:55:38;;;;;;;14.48;4.57;;;16.20;99.90;;;;;;5005910;28;19948;-76
2022/05/13 09:58:10;;;;;;;8.85;2.33;;;16.40;99.90;;;;;;5005908;28;20042;-76
2022/05/13 10:00:39;;;;;;;8.43;2.00;;;16.40;99.90;;;;;;5007452;28;20139;-77
2022/05/13 10:03:23;;;;;;;13.57;2.15;;;16.60;99.90;;;;;;5007422;28;20394;-76
2022/05/13 10:06:02;;;;;;;10.93;2.17;;;16.50;99.90;;;;;;5007164;28;20048;-76
2022/05/13 10:08:29;;;;;;;8.80;2.15;;;16.50;99.90;;;;;;4989905;28;20061;-76
2022/05/13 10:14:07;;;;;;;8.30;2.58;;;16.10;99.90;;;;;;5005434;28;20050;-76
2022/05/13 10:16:41;;;;;;;;;;;15.80;99.90;;;;;;5007594;28;20050;-76
2022/05/13 10:19:13;;;;;;;12.80;3.20;;;16.00;99.90;;;;;;5007080;28;20292;-75
2022/05/13 10:22:00;;;;;;;6.88;1.73;;;16.00;99.90;;;;;;5006722;28;20484;-75
2022/05/13 10:24:57;;;;;;;5.85;1.88;;;16.20;99.90;;;;;;5006849;28;20535;-76
2022/05/13 10:27:45;;;;;;;4.63;1.30;;;16.10;99.90;;;;;;5004717;28;20104;-76
2022/05/13 10:30:15;;;;;;;3.25;1.77;;;16.80;99.90;;;;;;5006665;28;20049;-76
2022/05/13 10:32:57;;;;;;;5.60;1.38;;;17.10;99.90;;;;;;5007052;28;20448;-76
2022/05/13 10:35:31;;;;;;;5.25;1.13;;;17.00;99.90;;;;;;5006632;28;20533;-76
2022/05/13 10:38:11;;;;;;;7.05;1.27;;;17.10;99.90;;;;;;5005327;28;20130;-77
2022/05/13 10:40:40;;;;;;;;;;;17.10;99.90;;;;;;5005232;28;20041;-77
2022/05/13 10:43:17;;;;;;;11.25;1.60;;;17.50;99.90;;;;;;5006543;28;20051;-77
2022/05/13 10:45:44;;;;;;;8.13;1.67;;;17.60;99.90;;;;;;5006798;28;20135;-79
2022/05/13 10:48:27;;;;;;;7.57;1.60;;;17.70;99.90;;;;;;5006545;28;20061;-76
2022/05/13 10:51:01;;;;;;;7.35;2.65;;;17.40;99.90;;;;;;5006338;28;20046;-76
2022/05/13 10:53:30;;;;;;;7.97;1.80;;;17.20;99.90;;;;;;5006013;28;20061;-76
2022/05/13 10:56:02;;;;;;;7.68;1.50;;;17.10;99.90;;;;;;5004413;28;20053;-77
2022/05/13 10:58:42;;;;;;;5.72;1.75;;;16.80;99.90;;;;;;5005503;28;20045;-77
2022/05/13 11:01:40;;;;;;;9.93;2.17;;;16.70;99.90;;;;;;5004842;28;20050;-76
2022/05/13 11:04:55;;;;;;;7.65;1.85;;;17.10;99.90;;;;;;5006460;28;20054;-75
2022/05/13 11:07:58;;;;;;;6.72;0.98;;;17.00;99.90;;;;;;5004944;28;20066;-75
2022/05/13 11:10:40;;;;;;;8.18;1.75;;;17.10;99.90;;;;;;5003970;28;20505;-77
2022/05/13 11:13:25;;;;;;;13.10;2.08;;;17.50;99.90;;;;;;4988768;28;20077;-76
2022/05/13 11:16:02;;;;;;;4.88;1.85;;;17.50;99.90;;;;;;5006065;28;20087;-76
2022/05/13 11:18:59;;;;;;;6.65;3.13;;;17.10;99.90;;;;;;5004570;28;20541;-77
2022/05/13 11:21:53;;;;;;;7.55;1.08;;;16.90;99.90;;;;;;5006015;28;20046;-76
2022/05/13 11:27:26;;;;;;;6.35;2.33;;;16.40;99.90;;;;;;5005636;28;20056;-78
2022/05/13 11:30:08;;;;;;;10.60;1.88;;;17.00;99.90;;;;;;5005900;28;20053;-77
2022/05/13 11:32:40;;;;;;;9.60;2.15;;;17.20;99.90;;;;;;5004879;28;20057;-77
2022/05/13 11:35:06;;;;;;;4.93;1.00;;;17.40;99.90;;;;;;5005757;28;20755;-77
2022/05/13 11:37:39;;;;;;;3.97;1.10;;;17.30;99.90;;;;;;5004625;28;20050;-77
2022/05/13 11:40:32;;;;;;;4.88;1.77;;;16.90;99.90;;;;;;5006151;28;20046;-77
2022/05/13 11:43:29;;;;;;;4.25;1.35;;;16.90;99.90;;;;;;4988168;28;20049;-77
2022/05/13 11:46:01;;;;;;;4.22;1.95;;;16.70;99.90;;;;;;5004825;28;20408;-79
2022/05/13 11:48:48;;;;;;;7.30;2.03;;;16.60;99.90;;;;;;5005830;28;20045;-77
2022/05/13 11:51:29;;;;;;;6.07;1.60;;;16.60;99.90;;;;;;5004681;28;20050;-76
2022/05/13 11:54:00;;;;;;;7.45;1.63;;;16.60;99.90;;;;;;5005085;28;20659;-76
2022/05/13 11:56:26;;;;;;;4.40;1.17;;;16.90;99.90;;;;;;5004692;28;20042;-76
2022/05/13 11:58:58;;;;;;;4.55;1.40;;;17.30;99.90;;;;;;5004427;28;20124;-77
2022/05/13 12:01:38;;;;;;;6.35;1.35;;;17.30;99.90;;;;;;5004006;28;20128;-78
2022/05/13 12:04:18;;;;;;;10.00;1.98;;;17.30;99.90;;;;;;5005298;28;20042;-76
2022/05/13 12:07:04;;;;;;;;;;;17.40;99.90;;;;;;5006541;28;20050;-77
2022/05/13 12:09:48;;;;;;;10.45;2.67;;;16.90;99.90;;;;;;4999047;28;19921;-76
2022/05/13 12:12:26;;;;;;;8.88;2.40;;;16.70;99.90;;;;;;5008910;28;20046;-77
2022/05/13 12:15:23;;;;;;;8.40;2.85;;;16.50;99.90;;;;;;5008129;28;20057;-77
2022/05/13 12:18:21;;;;;;;7.15;2.42;;;16.70;99.90;;;;;;5008213;28;20404;-76
2022/05/13 12:21:14;;;;;;;8.05;2.63;;;16.90;99.90;;;;;;5007892;28;20058;-76
2022/05/13 12:23:55;;;;;;;5.72;2.08;;;16.80;99.90;;;;;;5007698;28;20072;-76
2022/05/13 12:26:42;;;;;;;6.40;2.38;;;16.70;99.90;;;;;;5006659;28;20484;-76
2022/05/13 12:29:16;;;;;;;7.72;3.75;;;16.60;99.90;;;;;;4997565;28;20104;-76
2022/05/13 12:31:54;;;;;;;4.22;1.98;;;16.50;99.90;;;;;;5009192;28;20038;-76
2022/05/13 12:37:57;;;;;;;11.07;2.25;;;16.90;99.90;;;;;;5009231;28;20147;-76
2022/05/13 12:40:23;;;;;;;12.43;2.30;;;16.70;99.90;;;;;;5006589;28;20053;-76
2022/05/13 12:42:52;;;;;;;10.20;3.22;;;16.80;99.90;;;;;;5007009;28;20056;-77
2022/05/13 12:45:23;;;;;;;7.13;2.42;;;16.50;99.90;;;;;;4991006;28;20476;-77
2022/05/13 12:48:04;;;;;;;8.30;2.15;;;16.40;99.90;;;;;;5008927;28;20048;-77
2022/05/13 12:50:47;;;;;;;5.13;1.60;;;16.80;99.90;;;;;;5008897;28;20104;-77
2022/05/13 12:53:27;;;;;;;8.73;2.67;;;16.70;99.90;;;;;;5008734;28;20057;-77
2022/05/13 12:56:07;;;;;;;9.85;3.15;;;17.00;99.90;;;;;;5007859;28;20061;-77
2022/05/13 12:58:36;;;;;;;7.72;2.50;;;16.70;99.90;;;;;;5008688;28;20120;-77
2022/05/13 13:01:03;;;;;;;5.68;1.52;;;16.70;99.90;;;;;;4990359;28;20050;-76
2022/05/13 13:03:34;;;;;;;7.75;2.15;;;16.60;99.90;;;;;;5007497;28;20049;-77
2022/05/13 13:06:12;;;;;;;12.02;2.85;;;16.70;99.90;;;;;;5008249;28;20041;-77
2022/05/13 13:08:40;;;;;;;10.20;2.55;;;17.00;99.90;;;;;;5008142;28;20061;-77
2022/05/13 13:11:08;;;;;;;9.05;2.22;;;17.30;99.90;;;;;;5007410;28;20049;-78
2022/05/13 13:13:42;;;;;;;8.07;2.40;;;17.50;99.90;;;;;;5007278;28;20125;-78
2022/05/13 13:16:33;;;;;;;10.02;1.65;;;17.40;99.90;;;;;;5008076;28;20046;-75
2022/05/13 13:19:06;;;;;;;13.73;2.13;;;17.10;99.90;;;;;;5007806;28;20042;-77
2022/05/13 13:21:32;;;;;;;4.50;1.63;;;16.90;99.90;;;;;;5006262;28;20056;-78
2022/05/13 13:24:00;;;;;;;8.20;1.65;;;17.10;99.90;;;;;;5008102;28;20042;-77
2022/05/13 13:26:26;;;;;;;9.65;2.17;;;17.00;99.90;;;;;;5006782;28;20057;-77
2022/05/13 13:28:53;;;;;;;8.45;2.00;;;17.10;99.90;;;;;;5008001;28;20124;-77